Grosse Pointe Shores, Michigan
Current Conditions -  °F | °C
As of 11:53 PM on Sunday 21 Dec 2014 (Local Time) from KDET Reporting Station
Haze Haze  
Wind Chill: 29°   Ceiling: Unl
Heat Index: 29°   Visibility: 5mi
Dew Point: 22°   Wind: 3mph
Humidity: 75%   Direction: 130°SE
Pressure: 30.2"   Gusts: NA
Location:  42.4243°N, 82.8975°W
Report Text: KDET 220453Z 13003KT 5SM HZ CLR M02/M06 A3020 RMK AO2 SLP235 T10171056 400281039 $
Loading
Personal Weather Stations






























Interactive Weather Map New forecast layout! Learn more

10-Day Weather Forecast

Advertisements
Track Severe Weather on mobile